Time;durP1;ratioP1;P1;durP2;ratioP2;P2;SDS_P1;SDS_P2;PMS_P1;PMS_P2;Temp;Humidity;BMP_temperature;BMP_pressure;BME280_temperature;BME280_humidity;BME280_pressure;Samples;Min_cycle;Max_cycle;Signal;HPM_P1;HPM_P2
2022/04/15 00:01:09;;;;;;;10.68;3.17;;;;;;;5.72;100.00;101743.25;5119258;28;20027;-47
2022/04/15 00:03:34;;;;;;;13.32;3.15;;;;;;;5.67;100.00;101748.06;5116953;28;20107;-50
2022/04/15 00:06:00;;;;;;;8.70;2.90;;;;;;;5.60;100.00;101742.50;5116257;28;20107;-49
2022/04/15 00:08:25;;;;;;;9.48;4.15;;;;;;;5.55;100.00;101754.34;5115331;28;20051;-46
2022/04/15 00:10:51;;;;;;;9.75;3.28;;;;;;;5.53;100.00;101757.13;5118938;28;20024;-48
2022/04/15 00:13:24;;;;;;;14.98;3.28;;;;;;;5.48;100.00;101761.91;5115300;28;20705;-46
2022/04/15 00:15:50;;;;;;;7.47;2.85;;;;;;;5.44;100.00;101758.69;5115911;28;20375;-51
2022/04/15 00:18:15;;;;;;;7.10;2.22;;;;;;;5.44;100.00;101763.13;5116919;28;20031;-46
2022/04/15 00:20:41;;;;;;;4.38;1.90;;;;;;;5.43;100.00;101764.94;5116506;28;20069;-46
2022/04/15 00:23:06;;;;;;;4.32;1.60;;;;;;;5.40;100.00;101767.81;5092790;28;20356;-46
2022/04/15 00:25:32;;;;;;;12.27;1.73;;;;;;;5.35;100.00;101769.97;5114968;28;20063;-48
2022/04/15 00:27:57;;;;;;;4.90;2.65;;;;;;;5.29;100.00;101777.53;5115173;28;20133;-47
2022/04/15 00:30:22;;;;;;;6.63;1.60;;;;;;;5.21;100.00;101778.16;5111281;28;20031;-46
2022/04/15 00:32:47;;;;;;;5.65;1.55;;;;;;;5.17;100.00;101772.31;5129995;28;20058;-48
2022/04/15 00:35:13;;;;;;;3.67;2.10;;;;;;;5.12;100.00;101779.72;5113244;28;20062;-48
2022/04/15 00:37:38;;;;;;;8.43;2.25;;;;;;;5.11;100.00;101774.59;5111420;28;20036;-52
2022/04/15 00:40:06;;;;;;;13.25;2.95;;;;;;;5.04;100.00;101776.91;5111260;28;20077;-48
2022/04/15 00:42:32;;;;;;;5.40;1.38;;;;;;;4.99;100.00;101777.25;5111334;28;20032;-48
2022/04/15 00:44:59;;;;;;;6.18;2.13;;;;;;;4.98;100.00;101772.09;5111245;28;20050;-49
2022/04/15 00:47:42;;;;;;;6.13;2.67;;;;;;;4.98;100.00;101778.22;5110995;28;20028;-49
2022/04/15 00:50:08;;;;;;;6.75;2.58;;;;;;;4.94;100.00;101783.84;5115090;28;20054;-48
2022/04/15 00:52:40;;;;;;;12.13;3.45;;;;;;;4.92;100.00;101777.88;5111126;28;20036;-50
2022/04/15 00:55:06;;;;;;;7.18;3.28;;;;;;;4.87;100.00;101780.03;5111039;28;20372;-53
2022/04/15 00:57:36;;;;;;;9.73;4.30;;;;;;;4.83;100.00;101782.06;5110968;28;20046;-47
2022/04/15 01:00:05;;;;;;;13.88;4.10;;;;;;;4.77;100.00;101786.00;5110740;28;20028;-46
2022/04/15 01:02:33;;;;;;;15.98;4.07;;;;;;;4.69;100.00;101783.16;5110381;28;20035;-48
2022/04/15 01:05:00;;;;;;;11.05;3.72;;;;;;;4.62;100.00;101783.75;5110207;28;20035;-46
2022/04/15 01:07:26;;;;;;;7.65;2.15;;;;;;;4.55;100.00;101792.13;5110317;28;20502;-52
2022/04/15 01:09:52;;;;;;;4.20;1.55;;;;;;;4.56;100.00;101777.19;5109883;28;20035;-48
2022/04/15 01:12:21;;;;;;;4.68;1.90;;;;;;;4.53;100.00;101788.75;5110039;28;20027;-50
2022/04/15 01:14:48;;;;;;;7.93;3.05;;;;;;;4.51;100.00;101785.41;5109821;28;20491;-47
2022/04/15 01:17:14;;;;;;;9.48;4.18;;;;;;;4.46;100.00;101786.75;5110193;28;20559;-47
2022/04/15 01:19:40;;;;;;;23.17;2.60;;;;;;;4.40;100.00;101788.06;5110558;28;20091;-50
2022/04/15 01:22:14;;;;;;;8.88;1.95;;;;;;;4.34;100.00;101799.03;5119392;28;20879;-47
2022/04/15 01:24:39;;;;;;;7.43;1.90;;;;;;;4.28;100.00;101792.44;5125419;27;20419;-47
2022/04/15 01:27:06;;;;;;;6.97;1.95;;;;;;;4.25;100.00;101797.94;5125985;28;20038;-48
2022/04/15 01:29:41;;;;;;;7.82;2.65;;;;;;;4.21;100.00;101798.28;5129651;27;20637;-47
2022/04/15 01:32:07;;;;;;;8.23;2.47;;;;;;;4.14;100.00;101798.75;5113550;28;20327;-46
2022/04/15 01:34:34;;;;;;;5.07;2.25;;;;;;;4.14;100.00;101801.38;5106303;28;20400;-49
2022/04/15 01:37:00;;;;;;;5.00;1.70;;;;;;;4.13;100.00;101793.63;5117570;28;20299;-49
2022/04/15 01:39:27;;;;;;;5.85;2.45;;;;;;;4.09;100.00;101802.69;5123924;28;20435;-48
2022/04/15 01:41:53;;;;;;;5.38;1.65;;;;;;;4.06;100.00;101795.88;5117211;27;20028;-48
2022/04/15 01:44:18;;;;;;;9.60;1.48;;;;;;;3.99;100.00;101799.94;5107121;28;20147;-51
2022/04/15 01:46:44;;;;;;;4.15;1.67;;;;;;;3.92;100.00;101809.22;5106983;28;20040;-47
2022/04/15 01:49:09;;;;;;;5.18;2.08;;;;;;;3.90;100.00;101809.34;5116315;28;20031;-47
2022/04/15 01:51:35;;;;;;;0.88;0.80;;;;;;;3.92;100.00;101811.84;5122958;28;20102;-47
2022/04/15 01:54:01;;;;;;;0.70;0.70;;;;;;;3.92;100.00;101819.69;5115559;28;20027;-48
2022/04/15 01:56:26;;;;;;;4.57;0.90;;;;;;;3.90;100.00;101817.22;5123120;28;20047;-46
2022/04/15 01:58:52;;;;;;;6.13;2.92;;;;;;;3.86;100.00;101823.63;5114749;28;20087;-46
2022/04/15 02:01:17;;;;;;;12.50;3.17;;;;;;;3.82;100.00;101824.81;5123480;27;20031;-49
2022/04/15 02:03:42;;;;;;;8.05;1.40;;;;;;;3.77;100.00;101832.19;5110401;28;20027;-46
2022/04/15 02:06:07;;;;;;;2.17;0.95;;;;;;;3.68;100.00;101825.81;5109788;28;20024;-46
2022/04/15 02:08:33;;;;;;;1.33;0.88;;;;;;;3.63;100.00;101827.94;5091935;28;20035;-46
2022/04/15 02:10:58;;;;;;;4.03;1.55;;;;;;;3.60;100.00;101824.72;5109822;28;20106;-46
2022/04/15 02:13:23;;;;;;;5.00;1.35;;;;;;;3.58;100.00;101831.88;5091911;28;20035;-46
2022/04/15 02:15:49;;;;;;;4.72;1.60;;;;;;;3.56;100.00;101829.34;5109925;28;20027;-46
2022/04/15 02:18:14;;;;;;;1.65;0.80;;;;;;;3.50;100.00;101833.25;5110304;28;20058;-48
2022/04/15 02:20:40;;;;;;;5.88;1.52;;;;;;;3.49;100.00;101830.75;5128780;28;20027;-47
2022/04/15 02:23:05;;;;;;;2.22;1.27;;;;;;;3.44;100.00;101827.63;5110345;28;20024;-46
2022/04/15 02:25:31;;;;;;;3.25;1.30;;;;;;;3.39;100.00;101824.50;5091394;28;20023;-46
2022/04/15 02:27:56;;;;;;;5.32;1.52;;;;;;;3.37;100.00;101815.91;5109731;28;20038;-46
2022/04/15 02:30:21;;;;;;;5.63;1.88;;;;;;;3.33;100.00;101822.31;5114802;28;20042;-45
2022/04/15 02:32:47;;;;;;;8.93;2.60;;;;;;;3.30;100.00;101817.31;5127493;27;20031;-48
2022/04/15 02:35:12;;;;;;;6.75;2.28;;;;;;;3.30;100.00;101812.06;5128899;28;20077;-48
2022/04/15 02:37:37;;;;;;;2.95;1.83;;;;;;;3.32;100.00;101815.41;5112154;28;20063;-47
2022/04/15 02:40:04;;;;;;;4.80;1.80;;;;;;;3.28;100.00;101814.81;5109914;28;20047;-47
2022/04/15 02:42:29;;;;;;;8.73;1.60;;;;;;;3.26;100.00;101820.16;5122730;28;20027;-48
2022/04/15 02:44:55;;;;;;;3.35;1.08;;;;;;;3.24;100.00;101818.59;5117058;28;20076;-50
2022/04/15 02:47:20;;;;;;;4.88;0.93;;;;;;;3.17;100.00;101815.56;5109650;28;20020;-48
2022/04/15 02:49:46;;;;;;;3.80;1.50;;;;;;;3.14;100.00;101817.56;5111513;28;20066;-48
2022/04/15 02:52:11;;;;;;;3.92;0.90;;;;;;;3.13;100.00;101821.16;5109576;28;20050;-47
2022/04/15 02:54:36;;;;;;;1.27;1.15;;;;;;;3.09;100.00;101819.69;5109587;28;20042;-46
2022/04/15 02:57:03;;;;;;;6.35;2.08;;;;;;;3.10;100.00;101821.34;5109425;28;20262;-48
2022/04/15 02:59:29;;;;;;;4.03;1.77;;;;;;;3.09;100.00;101828.38;5109598;28;20091;-48
2022/04/15 03:01:54;;;;;;;3.85;1.70;;;;;;;3.08;100.00;101828.50;5109239;28;20099;-49
2022/04/15 03:04:19;;;;;;;4.55;2.05;;;;;;;3.04;100.00;101830.47;5115667;28;20023;-46
2022/04/15 03:06:45;;;;;;;5.13;2.05;;;;;;;3.02;100.00;101821.88;5119421;28;20382;-48
2022/04/15 03:09:11;;;;;;;7.40;2.60;;;;;;;2.99;100.00;101829.97;5109887;28;20023;-48
2022/04/15 03:11:38;;;;;;;7.65;2.67;;;;;;;2.96;100.00;101833.66;5110246;28;20045;-51
2022/04/15 03:14:04;;;;;;;4.00;1.60;;;;;;;2.94;100.00;101829.47;5109620;28;20024;-48
2022/04/15 03:16:29;;;;;;;3.47;1.30;;;;;;;2.93;100.00;101835.66;5109571;28;20023;-47
2022/04/15 03:18:55;;;;;;;4.03;1.20;;;;;;;2.88;100.00;101835.16;5114132;28;20382;-49
2022/04/15 03:21:21;;;;;;;9.35;0.95;;;;;;;2.86;100.00;101829.16;5113071;28;20791;-48
2022/04/15 03:23:46;;;;;;;1.02;0.82;;;;;;;2.87;100.00;101831.69;5115384;28;20160;-48
2022/04/15 03:26:11;;;;;;;1.70;0.93;;;;;;;2.88;100.00;101837.75;5111545;28;20107;-50
2022/04/15 03:28:37;;;;;;;3.45;1.30;;;;;;;2.87;100.00;101834.31;5113536;28;20142;-48
2022/04/15 03:31:05;;;;;;;4.07;1.15;;;;;;;2.87;100.00;101839.56;5124313;28;20490;-51
2022/04/15 03:33:30;;;;;;;2.30;1.05;;;;;;;2.83;100.00;101838.06;5113111;27;20036;-48
2022/04/15 03:35:56;;;;;;;1.45;1.25;;;;;;;2.77;100.00;101828.88;5115937;28;20142;-53
2022/04/15 03:38:21;;;;;;;2.10;1.13;;;;;;;2.73;100.00;101829.19;5133556;28;20080;-46
2022/04/15 03:40:46;;;;;;;2.13;1.35;;;;;;;2.68;100.00;101831.28;5115383;28;20535;-48
2022/04/15 03:43:12;;;;;;;3.50;1.20;;;;;;;2.65;100.00;101834.97;5112882;28;20278;-48
2022/04/15 03:45:37;;;;;;;3.08;1.23;;;;;;;2.64;100.00;101830.69;5128444;28;20031;-46
2022/04/15 03:48:03;;;;;;;0.60;0.52;;;;;;;2.65;100.00;101845.44;5118498;28;20099;-47
2022/04/15 03:50:28;;;;;;;6.70;2.17;;;;;;;2.64;100.00;101842.94;5118091;28;20111;-50
2022/04/15 03:52:54;;;;;;;2.30;1.27;;;;;;;2.63;100.00;101849.94;5113170;28;20078;-47
2022/04/15 03:55:21;;;;;;;4.75;1.58;;;;;;;2.61;100.00;101849.22;5112938;28;20031;-49
2022/04/15 03:57:48;;;;;;;4.25;1.95;;;;;;;2.61;100.00;101846.59;5127140;28;20092;-51
2022/04/15 04:00:16;;;;;;;2.50;1.67;;;;;;;2.60;100.00;101847.53;5120890;28;20380;-52
2022/04/15 04:02:43;;;;;;;5.47;1.85;;;;;;;2.58;100.00;101850.28;5112265;28;20511;-50
2022/04/15 04:05:09;;;;;;;4.22;1.80;;;;;;;2.57;100.00;101847.75;5123113;28;20071;-51
2022/04/15 04:07:34;;;;;;;1.10;1.00;;;;;;;2.56;100.00;101844.31;5115973;28;20412;-48
2022/04/15 04:10:00;;;;;;;2.13;1.02;;;;;;;2.56;100.00;101846.09;5121827;28;20043;-49
2022/04/15 04:12:29;;;;;;;4.47;1.75;;;;;;;2.55;100.00;101841.78;5123080;28;20019;-47
2022/04/15 04:14:55;;;;;;;1.55;0.90;;;;;;;2.53;100.00;101846.28;5120408;28;20119;-48
2022/04/15 04:17:20;;;;;;;2.45;0.98;;;;;;;2.51;100.00;101842.94;5123871;28;20098;-46
2022/04/15 04:19:46;;;;;;;3.97;2.13;;;;;;;2.49;100.00;101853.50;5119047;28;20032;-49
2022/04/15 04:22:12;;;;;;;7.53;1.80;;;;;;;2.46;100.00;101851.09;5119417;28;20092;-49
2022/04/15 04:24:37;;;;;;;6.10;1.88;;;;;;;2.44;100.00;101849.53;5125920;28;20029;-46
2022/04/15 04:27:03;;;;;;;8.20;2.17;;;;;;;2.43;100.00;101853.06;5093916;28;20030;-49
2022/04/15 04:29:28;;;;;;;4.28;1.48;;;;;;;2.45;100.00;101843.34;5111839;28;20042;-47
2022/04/15 04:31:53;;;;;;;4.13;1.60;;;;;;;2.44;100.00;101844.31;5119788;28;20472;-46
2022/04/15 04:34:19;;;;;;;3.10;1.40;;;;;;;2.40;100.00;101843.66;5094538;28;20027;-47
2022/04/15 04:36:44;;;;;;;5.18;1.20;;;;;;;2.42;100.00;101852.25;5123060;28;20038;-46
2022/04/15 04:39:10;;;;;;;3.42;1.00;;;;;;;2.40;100.00;101844.50;5131342;28;20034;-45
2022/04/15 04:41:37;;;;;;;2.17;1.38;;;;;;;2.37;100.00;101842.09;5112084;28;20050;-46
2022/04/15 04:44:03;;;;;;;3.33;1.30;;;;;;;2.35;100.00;101837.88;5111851;28;20539;-47
2022/04/15 04:46:28;;;;;;;7.50;1.40;;;;;;;2.32;100.00;101846.81;5111759;28;20054;-48
2022/04/15 04:48:54;;;;;;;8.82;2.10;;;;;;;2.29;100.00;101846.16;5122431;27;20034;-46
2022/04/15 04:51:20;;;;;;;5.40;2.05;;;;;;;2.25;100.00;101845.56;5112090;28;20046;-47
2022/04/15 04:53:45;;;;;;;3.65;1.95;;;;;;;2.22;100.00;101843.16;5112101;28;20031;-49
2022/04/15 04:56:10;;;;;;;2.92;2.63;;;;;;;2.24;100.00;101843.84;5111724;28;20020;-46
2022/04/15 04:58:36;;;;;;;12.80;2.42;;;;;;;2.21;100.00;101846.69;5112261;28;20591;-49
2022/04/15 05:01:01;;;;;;;8.45;2.00;;;;;;;2.16;100.00;101840.94;5111536;28;20472;-48
2022/04/15 05:03:26;;;;;;;2.83;1.80;;;;;;;2.14;100.00;101845.41;5111696;28;20046;-49
2022/04/15 05:05:52;;;;;;;5.50;1.42;;;;;;;2.13;100.00;101846.38;5111557;28;20114;-49
2022/04/15 05:08:17;;;;;;;2.65;1.95;;;;;;;2.10;100.00;101850.03;5093253;28;20122;-47
2022/04/15 05:10:42;;;;;;;7.65;3.30;;;;;;;2.11;100.00;101861.31;5125100;28;20380;-50
2022/04/15 05:13:08;;;;;;;4.22;1.60;;;;;;;2.13;100.00;101851.59;5118231;28;20376;-46
2022/04/15 05:15:33;;;;;;;9.52;1.90;;;;;;;2.13;100.00;101862.06;5111301;28;20127;-46
2022/04/15 05:17:58;;;;;;;5.95;2.20;;;;;;;2.10;100.00;101857.88;5118289;28;20416;-47
2022/04/15 05:20:24;;;;;;;7.47;1.65;;;;;;;2.10;100.00;101870.13;5111131;28;20031;-46
2022/04/15 05:22:49;;;;;;;4.97;1.65;;;;;;;2.13;100.00;101867.31;5121330;28;20031;-46
2022/04/15 05:25:14;;;;;;;2.83;1.20;;;;;;;2.13;100.00;101864.69;5121613;28;20028;-45
2022/04/15 05:27:40;;;;;;;7.20;2.65;;;;;;;2.15;100.00;101871.50;5117832;28;20031;-47
2022/04/15 05:30:07;;;;;;;6.60;2.42;;;;;;;2.17;100.00;101885.31;5117592;28;20030;-51
2022/04/15 05:32:32;;;;;;;3.15;1.92;;;;;;;2.18;100.00;101888.78;5097869;28;20027;-48
2022/04/15 05:34:57;;;;;;;3.67;1.77;;;;;;;2.17;100.00;101890.56;5119086;28;20037;-50
2022/04/15 05:37:23;;;;;;;3.00;1.17;;;;;;;2.20;100.00;101894.75;5119042;28;20031;-52
2022/04/15 05:39:48;;;;;;;6.05;1.35;;;;;;;2.29;100.00;101894.13;5116299;28;20093;-49
2022/04/15 05:42:13;;;;;;;5.18;1.73;;;;;;;2.32;100.00;101899.16;5118549;27;20023;-49
2022/04/15 05:44:42;;;;;;;5.28;2.08;;;;;;;2.34;100.00;101902.50;5118969;28;20019;-48
2022/04/15 05:47:08;;;;;;;2.00;1.65;;;;;;;2.40;100.00;101898.63;5114127;28;20072;-50
2022/04/15 05:49:34;;;;;;;3.38;1.38;;;;;;;2.46;100.00;101895.63;5114826;28;20062;-47
2022/04/15 05:52:01;;;;;;;3.92;1.25;;;;;;;2.47;100.00;101897.28;5117883;28;20059;-47
2022/04/15 05:54:26;;;;;;;9.25;1.42;;;;;;;2.47;100.00;101899.06;5091420;28;20202;-50
2022/04/15 05:56:51;;;;;;;1.95;1.25;;;;;;;2.48;100.00;101903.34;5111748;28;20027;-51
2022/04/15 05:59:20;;;;;;;4.28;1.23;;;;;;;2.47;100.00;101897.28;5110147;28;20401;-52
2022/04/15 06:01:46;;;;;;;2.42;1.10;;;;;;;2.50;100.00;101897.06;5117807;27;20027;-49
2022/04/15 06:04:12;;;;;;;3.08;1.85;;;;;;;2.53;100.00;101909.97;5118846;27;20023;-50
2022/04/15 06:06:37;;;;;;;2.03;1.08;;;;;;;2.55;100.00;101904.63;5117026;27;20416;-48
2022/04/15 06:09:02;;;;;;;1.67;1.17;;;;;;;2.58;100.00;101904.41;5111954;27;20451;-51
2022/04/15 06:11:28;;;;;;;3.83;2.30;;;;;;;2.64;100.00;101903.16;5111772;27;20041;-47
2022/04/15 06:13:53;;;;;;;9.25;1.85;;;;;;;2.70;100.00;101907.97;5112596;28;20111;-49
2022/04/15 06:16:20;;;;;;;6.68;1.80;;;;;;;2.74;100.00;101906.84;5114848;27;20031;-47
2022/04/15 06:18:46;;;;;;;2.45;1.88;;;;;;;2.78;100.00;101906.50;5118505;27;20035;-48
2022/04/15 06:21:11;;;;;;;4.43;1.42;;;;;;;2.83;100.00;101907.03;5110159;28;20159;-49
2022/04/15 06:23:38;;;;;;;1.73;1.25;;;;;;;2.91;100.00;101913.53;5115670;27;20447;-52
2022/04/15 06:26:04;;;;;;;2.15;1.42;;;;;;;2.92;100.00;101912.56;5118003;28;20045;-51
2022/04/15 06:28:30;;;;;;;6.47;1.73;;;;;;;2.97;100.00;101908.72;5112536;28;20470;-51
2022/04/15 06:30:57;;;;;;;4.63;2.13;;;;;;;3.08;100.00;101907.97;5117269;28;20039;-49
2022/04/15 06:33:22;;;;;;;8.20;2.58;;;;;;;3.21;100.00;101919.25;5112740;28;20023;-49
2022/04/15 06:35:50;;;;;;;4.95;3.08;;;;;;;3.33;100.00;101916.69;5115390;28;20536;-50
2022/04/15 06:38:16;;;;;;;2.35;1.90;;;;;;;3.45;100.00;101923.69;5110075;28;20368;-50
2022/04/15 06:40:42;;;;;;;4.28;1.83;;;;;;;3.55;100.00;101919.47;5116691;28;20066;-49
2022/04/15 06:43:08;;;;;;;4.63;2.15;;;;;;;3.65;100.00;101924.91;5114404;28;20027;-48
2022/04/15 06:45:34;;;;;;;2.75;2.10;;;;;;;3.75;100.00;101918.03;5116893;28;20502;-51
2022/04/15 06:48:00;;;;;;;5.65;2.35;;;;;;;3.92;100.00;101930.78;5112876;28;20023;-52
2022/04/15 06:50:25;;;;;;;11.23;1.83;;;;;;;4.10;100.00;101933.81;5113986;28;20039;-51
2022/04/15 06:52:51;;;;;;;5.38;2.60;;;;;;;4.29;100.00;101927.22;5112949;28;20026;-48
2022/04/15 06:55:17;;;;;;;7.00;2.80;;;;;;;4.47;100.00;101925.84;5106549;28;20312;-48
2022/04/15 06:57:42;;;;;;;4.53;2.08;;;;;;;4.61;100.00;101929.19;5111354;28;20043;-49
2022/04/15 07:00:09;;;;;;;2.33;1.63;;;;;;;4.76;100.00;101928.03;5112809;28;20024;-52
2022/04/15 07:02:35;;;;;;;3.72;2.33;;;;;;;4.91;100.00;101934.75;5115783;28;20099;-48
2022/04/15 07:05:02;;;;;;;3.08;1.55;;;;;;;5.16;100.00;101945.97;5112102;28;20024;-50
2022/04/15 07:07:27;;;;;;;3.17;2.20;;;;;;;5.42;100.00;101942.13;5111214;28;20028;-47
2022/04/15 07:09:53;;;;;;;2.90;2.55;;;;;;;5.66;100.00;101938.50;5111421;28;20100;-47
2022/04/15 07:12:18;;;;;;;6.90;2.85;;;;;;;5.86;100.00;101935.09;5111320;28;20020;-47
2022/04/15 07:14:43;;;;;;;8.63;2.47;;;;;;;6.03;100.00;101940.81;5112678;28;20038;-48
2022/04/15 07:17:09;;;;;;;9.25;3.97;;;;;;;6.22;100.00;101941.00;5096894;28;20468;-48
2022/04/15 07:19:34;;;;;;;3.60;2.50;;;;;;;6.40;100.00;101953.56;5115521;28;20087;-51
2022/04/15 07:22:00;;;;;;;4.32;2.78;;;;;;;6.54;100.00;101945.38;5117180;28;20094;-50
2022/04/15 07:24:27;;;;;;;5.15;2.30;;;;;;;6.69;100.00;101949.34;5115755;28;20100;-48
2022/04/15 07:26:52;;;;;;;3.80;1.75;;;;;;;6.93;100.00;101945.59;5113435;28;20113;-48
2022/04/15 07:29:20;;;;;;;5.15;3.17;;;;;;;7.20;100.00;101940.56;5116040;28;20110;-49
2022/04/15 07:31:45;;;;;;;7.88;3.25;;;;;;;7.50;100.00;101945.94;5118358;28;20027;-50
2022/04/15 07:34:10;;;;;;;3.85;3.15;;;;;;;7.78;100.00;101953.09;5109751;28;20491;-48
2022/04/15 07:39:04;;;;;;;7.05;3.80;;;;;;;8.33;100.00;101954.34;5122228;28;20038;-50
2022/04/15 07:41:30;;;;;;;4.90;4.00;;;;;;;8.57;100.00;101957.44;5116567;28;20046;-48
2022/04/15 07:43:55;;;;;;;8.82;5.25;;;;;;;8.82;100.00;101957.78;5108071;28;20023;-47
2022/04/15 07:46:21;;;;;;;6.22;3.33;;;;;;;8.98;100.00;101954.53;5117750;28;20035;-47
2022/04/15 07:48:46;;;;;;;5.90;2.58;;;;;;;9.13;100.00;101950.44;5114512;28;20390;-48
2022/04/15 07:51:11;;;;;;;5.75;2.53;;;;;;;9.25;100.00;101946.63;5123617;28;20452;-51
2022/04/15 07:53:37;;;;;;;4.57;2.80;;;;;;;9.34;100.00;101945.72;5111889;28;20558;-50
2022/04/15 07:56:03;;;;;;;4.22;2.70;;;;;;;9.51;100.00;101936.19;5111046;28;20020;-48
2022/04/15 07:58:29;;;;;;;4.15;3.13;;;;;;;9.69;100.00;101930.91;5112191;28;20380;-49
2022/04/15 08:00:54;;;;;;;3.83;2.42;;;;;;;9.88;100.00;101926.44;5115099;28;20024;-52
2022/04/15 08:03:21;;;;;;;8.52;3.33;;;;;;;10.09;100.00;101926.16;5109753;28;20471;-50
2022/04/15 08:05:47;;;;;;;4.97;2.17;;;;;;;10.33;100.00;101925.56;5118606;28;20038;-48
2022/04/15 08:08:13;;;;;;;5.18;2.88;;;;;;;10.55;100.00;101929.53;5124295;28;20027;-53
2022/04/15 08:10:38;;;;;;;3.72;2.42;;;;;;;10.81;100.00;101924.22;5121431;28;20028;-50
2022/04/15 08:13:04;;;;;;;4.78;1.83;;;;;;;11.05;100.00;101912.91;5116329;28;20038;-53
2022/04/15 08:15:30;;;;;;;2.90;2.38;;;;;;;11.26;100.00;101909.84;5113676;28;20476;-49
2022/04/15 08:17:55;;;;;;;7.07;2.92;;;;;;;11.45;100.00;101896.28;5118579;28;20023;-53
2022/04/15 08:20:20;;;;;;;9.60;4.07;;;;;;;11.58;100.00;101906.44;5122111;28;20027;-50
2022/04/15 08:22:46;;;;;;;5.13;2.50;;;;;;;11.73;100.00;101911.94;5112822;28;20031;-51
2022/04/15 08:25:11;;;;;;;2.45;2.05;;;;;;;11.95;100.00;101908.69;5112415;28;20042;-48
2022/04/15 08:27:37;;;;;;;2.90;1.80;;;;;;;12.21;100.00;101908.53;5112471;28;20046;-55
2022/04/15 08:30:03;;;;;;;4.20;2.47;;;;;;;12.43;100.00;101907.00;5117600;28;20027;-54
2022/04/15 08:32:33;;;;;;;2.80;1.95;;;;;;;12.76;100.00;101906.09;5116202;28;20036;-49
2022/04/15 08:35:03;;;;;;;2.42;1.10;;;;;;;13.07;100.00;101904.31;5115713;28;20031;-51
2022/04/15 08:37:28;;;;;;;2.78;1.15;;;;;;;13.24;100.00;101891.78;5126283;28;20032;-48
2022/04/15 08:39:54;;;;;;;1.90;0.50;;;;;;;13.36;100.00;101886.09;5124252;28;20031;-55
2022/04/15 08:42:20;;;;;;;1.55;1.02;;;;;;;13.57;100.00;101883.63;5110212;28;20028;-54
2022/04/15 08:44:54;;;;;;;2.50;0.80;;;;;;;13.77;100.00;101881.31;5112402;28;20036;-49
2022/04/15 08:47:20;;;;;;;4.90;0.50;;;;;;;13.97;100.00;101879.00;5123544;28;20037;-51
2022/04/15 08:49:47;;;;;;;3.85;0.60;;;;;;;14.12;100.00;101877.22;5115829;28;20063;-52
2022/04/15 08:52:16;;;;;;;0.75;0.47;;;;;;;14.34;100.00;101893.34;5121021;28;20031;-50
2022/04/15 08:54:42;;;;;;;0.38;0.25;;;;;;;14.50;100.00;101879.00;5101373;28;20029;-54
2022/04/15 08:57:08;;;;;;;1.80;0.80;;;;;;;14.52;100.00;101877.81;5119807;28;20063;-49
2022/04/15 08:59:33;;;;;;;1.23;0.60;;;;;;;14.58;100.00;101892.28;5116080;28;20444;-49
2022/04/15 09:01:59;;;;;;;4.10;0.70;;;;;;;14.78;100.00;101884.56;5119659;28;20556;-50
2022/04/15 09:04:24;;;;;;;0.88;0.73;;;;;;;14.96;100.00;101885.03;5122640;28;20027;-49
2022/04/15 09:07:01;;;;;;;2.15;0.30;;;;;;;15.11;100.00;101879.66;5125730;27;20539;-48
2022/04/15 09:09:29;;;;;;;1.65;0.22;;;;;;;15.27;100.00;101883.97;5121992;27;20028;-47
2022/04/15 09:11:56;;;;;;;1.20;0.10;;;;;;;15.49;100.00;101880.31;5116511;28;20046;-52
2022/04/15 09:14:23;;;;;;;0.55;0.22;;;;;;;15.62;100.00;101884.16;5125893;27;20029;-51
2022/04/15 09:16:48;;;;;;;1.63;0.55;;;;;;;15.76;100.00;101885.94;5114411;28;20352;-51
2022/04/15 09:19:15;;;;;;;2.40;0.30;;;;;;;15.77;100.00;101884.91;5123275;28;20055;-49
2022/04/15 09:21:49;;;;;;;2.50;0.20;;;;;;;16.02;100.00;101884.53;5109376;28;20421;-48
2022/04/15 09:24:15;;;;;;;0.57;0.30;;;;;;;16.20;100.00;101879.53;5112873;28;20031;-50
2022/04/15 09:26:44;;;;;;;1.23;0.10;;;;;;;16.28;100.00;101881.25;5115475;28;20391;-45
2022/04/15 09:29:12;;;;;;;0.00;0.00;;;;;;;16.38;100.00;101884.41;5114847;28;20119;-48
2022/04/15 09:31:37;;;;;;;0.38;0.05;;;;;;;16.38;100.00;101879.06;5125280;28;20046;-48
2022/04/15 09:34:06;;;;;;;1.23;0.13;;;;;;;16.47;100.00;101885.06;5120244;28;20039;-48
2022/04/15 09:36:34;;;;;;;0.30;0.05;;;;;;;16.52;100.00;101879.97;5119581;28;20087;-49
2022/04/15 09:39:00;;;;;;;0.57;0.05;;;;;;;16.55;100.00;101884.94;5106597;28;20027;-50
2022/04/15 09:41:27;;;;;;;4.88;0.70;;;;;;;16.55;100.00;101879.59;5119063;28;20019;-49
2022/04/15 09:43:54;;;;;;;0.10;0.00;;;;;;;16.47;100.00;101882.41;5114066;28;20050;-48
2022/04/15 09:46:20;;;;;;;1.38;0.10;;;;;;;16.52;100.00;101885.31;5121647;28;20031;-51
2022/04/15 09:49:02;;;;;;;0.45;0.20;;;;;;;16.35;100.00;101882.94;5112717;28;20046;-47
2022/04/15 09:51:29;;;;;;;0.75;0.20;;;;;;;16.40;100.00;101885.03;5126063;28;20052;-52
2022/04/15 09:53:57;;;;;;;0.30;0.20;;;;;;;16.33;100.00;101881.50;5115965;27;20180;-48
2022/04/15 09:56:23;;;;;;;0.63;0.10;;;;;;;16.46;100.00;101886.94;5116079;27;20057;-54
2022/04/15 09:58:53;;;;;;;3.00;0.13;;;;;;;16.68;100.00;101881.53;5119852;28;20119;-51
2022/04/15 10:01:22;;;;;;;0.88;0.00;;;;;;;17.00;100.00;101877.38;5125051;28;20030;-48
2022/04/15 10:03:50;;;;;;;8.30;1.08;;;;;;;17.28;100.00;101876.47;5110076;28;20038;-46
2022/04/15 10:06:15;;;;;;;0.98;0.10;;;;;;;17.31;100.00;101878.72;5114125;28;20501;-49
2022/04/15 10:08:42;;;;;;;0.95;0.30;;;;;;;17.45;100.00;101880.44;5120708;28;20031;-49
2022/04/15 10:11:09;;;;;;;0.30;0.20;;;;;;;17.43;100.00;101877.94;5125487;28;20450;-52
2022/04/15 10:13:35;;;;;;;0.40;0.10;;;;;;;17.48;100.00;101871.97;5123836;27;20376;-50
2022/04/15 10:16:01;;;;;;;0.32;0.25;;;;;;;17.40;100.00;101881.03;5111625;27;20023;-50
2022/04/15 10:18:28;;;;;;;0.50;0.20;;;;;;;17.39;100.00;101865.94;5118524;27;21215;-48
2022/04/15 10:20:54;;;;;;;0.50;0.15;;;;;;;17.44;100.00;101862.66;5120105;27;20561;-51
2022/04/15 10:23:21;;;;;;;2.30;0.20;;;;;;;17.57;100.00;101873.41;5119489;27;20031;-50
2022/04/15 10:25:49;;;;;;;0.77;0.32;;;;;;;17.43;100.00;101861.84;5116199;28;20035;-48
2022/04/15 10:28:19;;;;;;;0.98;0.17;;;;;;;17.65;100.00;101865.19;5114427;28;20054;-52
2022/04/15 10:30:54;;;;;;;1.75;0.20;;;;;;;17.74;100.00;101870.38;5112127;28;20111;-50
2022/04/15 10:33:30;;;;;;;0.47;0.32;;;;;;;17.86;100.00;101860.69;5109514;28;20718;-51
2022/04/15 10:36:00;;;;;;;0.20;0.00;;;;;;;18.27;100.00;101865.00;5109187;28;20418;-51
2022/04/15 10:38:26;;;;;;;0.68;0.40;;;;;;;18.40;100.00;101864.16;5110954;28;20034;-49
2022/04/15 10:40:51;;;;;;;2.90;0.40;;;;;;;18.36;100.00;101860.28;5109607;28;20383;-48
2022/04/15 10:43:29;;;;;;;0.82;0.15;;;;;;;18.51;100.00;101867.06;5106353;28;20042;-48
2022/04/15 10:46:12;;;;;;;0.93;0.25;;;;;;;18.66;100.00;101855.22;5110205;28;20130;-49
2022/04/15 10:48:38;;;;;;;2.97;0.35;;;;;;;18.70;100.00;101851.91;5112257;28;20042;-50
2022/04/15 10:51:23;;;;;;;1.83;0.70;;;;;;;18.96;100.00;101845.63;5108353;28;20505;-48
2022/04/15 10:53:48;;;;;;;3.67;0.40;;;;;;;19.15;100.00;101848.44;5112015;28;20091;-51
2022/04/15 10:56:14;;;;;;;0.20;0.20;;;;;;;19.18;100.00;101848.03;5116551;28;20031;-52
2022/04/15 11:02:02;;;;;;;0.85;0.10;;;;;;;19.33;100.00;101845.03;5109631;28;20085;-48
2022/04/15 11:04:35;;;;;;;0.10;0.10;;;;;;;19.58;100.00;101839.69;5120834;27;20023;-52
2022/04/15 11:07:24;;;;;;;1.70;0.30;;;;;;;19.68;100.00;101836.56;5117123;27;20394;-52
2022/04/15 11:09:50;;;;;;;2.72;0.40;;;;;;;19.71;100.00;101836.94;5114964;27;20041;-49
2022/04/15 11:12:28;;;;;;;0.88;0.10;;;;;;;19.75;100.00;101837.34;5121120;28;20395;-50
2022/04/15 11:14:54;;;;;;;1.60;0.38;;;;;;;19.96;100.00;101830.75;5122201;27;20023;-49
2022/04/15 11:17:36;;;;;;;0.30;0.20;;;;;;;20.00;100.00;101830.06;5120922;28;20030;-53
2022/04/15 11:20:04;;;;;;;1.05;0.10;;;;;;;20.08;100.00;101825.44;5113928;28;20042;-51
2022/04/15 11:22:31;;;;;;;0.82;0.82;;;;;;;20.18;100.00;101831.97;5092461;28;20062;-47
2022/04/15 11:24:56;;;;;;;3.30;0.20;;;;;;;20.41;100.00;101833.19;5112570;28;20028;-48